createdAt,value
2022-11-24T00:01:52.780Z,3.00
2022-11-24T00:04:22.013Z,3.00
2022-11-24T00:06:50.846Z,3.00
2022-11-24T00:09:20.413Z,3.00
2022-11-24T00:11:51.212Z,3.00
2022-11-24T00:14:21.250Z,3.00
2022-11-24T00:16:50.612Z,3.10
2022-11-24T00:19:20.104Z,3.10
2022-11-24T00:21:49.268Z,3.10
2022-11-24T00:24:18.805Z,3.00
2022-11-24T00:26:47.869Z,3.00
2022-11-24T00:29:18.795Z,3.00
2022-11-24T00:31:47.995Z,3.00
2022-11-24T00:34:17.420Z,3.00
2022-11-24T00:36:46.499Z,2.90
2022-11-24T00:39:17.558Z,3.00
2022-11-24T00:41:46.956Z,3.00
2022-11-24T00:44:17.895Z,3.00
2022-11-24T00:46:47.557Z,2.90
2022-11-24T00:49:17.143Z,2.90
2022-11-24T00:51:46.611Z,2.80
2022-11-24T00:54:15.916Z,2.80
2022-11-24T00:56:45.014Z,2.80
2022-11-24T00:59:14.516Z,2.80
2022-11-24T01:01:44.909Z,2.80
2022-11-24T01:04:14.760Z,2.90
2022-11-24T01:06:43.750Z,2.80
2022-11-24T01:09:13.174Z,2.80
2022-11-24T01:12:00.302Z,2.80
2022-11-24T01:14:30.109Z,2.70
2022-11-24T01:17:00.805Z,2.70
2022-11-24T01:19:30.033Z,2.70
2022-11-24T01:21:58.819Z,2.70
2022-11-24T01:24:27.972Z,2.70
2022-11-24T01:26:56.830Z,2.70
2022-11-24T01:29:26.232Z,2.70
2022-11-24T01:31:55.068Z,2.70
2022-11-24T01:34:26.048Z,2.70
2022-11-24T01:36:57.134Z,2.70
2022-11-24T01:39:26.372Z,2.70
2022-11-24T01:41:55.227Z,2.70
2022-11-24T01:44:27.026Z,2.70
2022-11-24T01:47:00.477Z,2.60
2022-11-24T01:49:39.247Z,2.60
2022-11-24T01:52:13.520Z,2.60
2022-11-24T01:54:47.629Z,2.60
2022-11-24T01:57:21.646Z,2.60
2022-11-24T01:59:54.110Z,2.60
2022-11-24T02:02:23.476Z,2.60
2022-11-24T02:04:54.410Z,2.50
2022-11-24T02:07:23.459Z,2.50
2022-11-24T02:09:57.259Z,2.50
2022-11-24T02:12:28.566Z,2.50
2022-11-24T02:14:59.354Z,2.50
2022-11-24T02:17:28.374Z,2.50
2022-11-24T02:20:02.170Z,2.50
2022-11-24T02:22:42.012Z,2.50
2022-11-24T02:25:22.497Z,2.50
2022-11-24T02:27:54.336Z,2.50
2022-11-24T02:30:24.031Z,2.50
2022-11-24T02:32:53.942Z,2.50
2022-11-24T02:35:23.233Z,2.50
2022-11-24T02:37:52.142Z,2.50
2022-11-24T02:40:25.868Z,2.50
2022-11-24T02:42:59.934Z,2.50
2022-11-24T02:45:31.616Z,2.50
2022-11-24T02:48:00.536Z,2.60
2022-11-24T02:50:29.973Z,2.60
2022-11-24T02:52:58.920Z,2.60
2022-11-24T02:55:28.240Z,2.60
2022-11-24T02:57:58.428Z,2.50
2022-11-24T03:00:27.899Z,2.60
2022-11-24T03:02:57.088Z,2.60
2022-11-24T03:05:27.539Z,2.60
2022-11-24T03:07:56.607Z,2.60
2022-11-24T03:10:26.028Z,2.60
2022-11-24T03:12:55.601Z,2.60
2022-11-24T03:15:26.429Z,2.60
2022-11-24T03:17:57.210Z,2.60
2022-11-24T03:20:26.740Z,2.60
2022-11-24T03:22:55.719Z,2.60
2022-11-24T03:25:25.599Z,2.60
2022-11-24T03:27:54.785Z,2.60
2022-11-24T03:30:25.586Z,2.60
2022-11-24T03:32:55.186Z,2.60
2022-11-24T03:35:24.906Z,2.60
2022-11-24T03:37:53.978Z,2.60
2022-11-24T03:40:23.181Z,2.60
2022-11-24T03:42:52.104Z,2.60
2022-11-24T03:48:12.208Z,2.60
2022-11-24T03:50:41.667Z,2.60
2022-11-24T03:53:10.976Z,2.60
2022-11-24T03:55:40.297Z,2.60
2022-11-24T03:58:09.323Z,2.60
2022-11-24T04:00:38.563Z,2.60
2022-11-24T04:03:07.755Z,2.60
2022-11-24T04:05:38.471Z,2.60
2022-11-24T04:08:07.879Z,2.60
2022-11-24T04:10:38.833Z,2.60
2022-11-24T04:13:13.952Z,2.60
2022-11-24T04:15:44.577Z,2.60
2022-11-24T04:18:14.790Z,2.60
2022-11-24T04:20:45.449Z,2.60
2022-11-24T04:23:14.418Z,2.60
2022-11-24T04:25:43.860Z,2.60
2022-11-24T04:28:13.061Z,2.60
2022-11-24T04:30:45.244Z,2.50
2022-11-24T04:33:14.636Z,2.50
2022-11-24T04:35:45.345Z,2.50
2022-11-24T04:39:23.084Z,2.60
2022-11-24T04:41:04.861Z,2.50
2022-11-24T04:43:39.135Z,2.60
2022-11-24T04:46:12.780Z,2.50
2022-11-24T04:48:41.775Z,2.60
2022-11-24T04:51:14.847Z,2.60
2022-11-24T04:53:44.168Z,2.60
2022-11-24T04:56:13.569Z,2.50
2022-11-24T04:58:42.454Z,2.50
2022-11-24T05:01:11.777Z,2.50
2022-11-24T05:03:41.165Z,2.50
2022-11-24T05:06:12.234Z,2.50
2022-11-24T05:08:41.174Z,2.60
2022-11-24T05:11:10.609Z,2.50
2022-11-24T05:13:39.486Z,2.50
2022-11-24T05:16:09.280Z,2.50
2022-11-24T05:18:38.285Z,2.50
2022-11-24T05:21:07.972Z,2.50
2022-11-24T05:23:38.288Z,2.50
2022-11-24T05:26:08.236Z,2.60
2022-11-24T05:28:37.107Z,2.60
2022-11-24T05:31:06.616Z,2.60
2022-11-24T05:33:35.536Z,2.60
2022-11-24T05:36:06.749Z,2.60
2022-11-24T05:38:37.374Z,2.50
2022-11-24T05:41:07.836Z,2.50
2022-11-24T05:43:36.714Z,2.50
2022-11-24T05:46:05.822Z,2.50
2022-11-24T05:48:34.649Z,2.50
2022-11-24T05:51:09.029Z,2.50
2022-11-24T05:53:39.342Z,2.50
2022-11-24T05:56:09.057Z,2.60
2022-11-24T05:58:37.634Z,2.60
2022-11-24T06:01:07.982Z,2.50
2022-11-24T06:03:36.238Z,2.50
2022-11-24T06:06:05.067Z,2.50
2022-11-24T06:08:35.017Z,2.50
2022-11-24T06:11:17.379Z,2.60
2022-11-24T06:13:46.903Z,2.60
2022-11-24T06:16:16.295Z,2.60
2022-11-24T06:18:45.647Z,2.60
2022-11-24T06:21:14.642Z,2.60
2022-11-24T06:23:43.329Z,2.60
2022-11-24T06:26:13.456Z,2.60
2022-11-24T06:28:42.046Z,2.60
2022-11-24T06:31:11.290Z,2.60
2022-11-24T06:33:40.272Z,2.50
2022-11-24T06:36:13.361Z,2.60
2022-11-24T06:38:42.393Z,2.60
2022-11-24T06:41:15.893Z,2.60
2022-11-24T06:43:44.405Z,2.60
2022-11-24T06:46:14.308Z,2.60
2022-11-24T06:48:43.411Z,2.60
2022-11-24T06:51:14.226Z,2.60
2022-11-24T06:53:42.991Z,2.60
2022-11-24T06:56:16.810Z,2.60
2022-11-24T06:58:48.660Z,2.60
2022-11-24T07:01:22.297Z,2.60
2022-11-24T07:03:52.436Z,2.60
2022-11-24T07:06:23.985Z,2.70
2022-11-24T07:08:53.060Z,2.60
2022-11-24T07:11:24.472Z,2.60
2022-11-24T07:13:59.614Z,2.70
2022-11-24T07:16:30.129Z,2.70
2022-11-24T07:18:59.364Z,2.70
2022-11-24T07:21:29.614Z,2.70
2022-11-24T07:23:59.255Z,2.70
2022-11-24T07:26:28.708Z,2.70
2022-11-24T07:28:58.492Z,2.70
2022-11-24T07:31:27.364Z,2.70
2022-11-24T07:33:57.496Z,2.70
2022-11-24T07:36:26.320Z,2.70
2022-11-24T07:38:55.141Z,2.70
2022-11-24T07:41:23.936Z,2.70
2022-11-24T07:43:53.156Z,2.70
2022-11-24T07:46:23.429Z,2.70
2022-11-24T07:48:52.023Z,2.80
2022-11-24T07:51:21.219Z,2.70
2022-11-24T07:53:49.716Z,2.70
2022-11-24T07:56:18.548Z,2.70
2022-11-24T07:58:52.656Z,2.70
2022-11-24T08:01:23.979Z,2.70
2022-11-24T08:03:52.691Z,2.70
2022-11-24T08:06:25.444Z,2.60
2022-11-24T08:08:55.571Z,2.70
2022-11-24T08:11:25.397Z,2.70
2022-11-24T08:13:53.938Z,2.70
2022-11-24T08:16:24.050Z,2.70
2022-11-24T08:18:54.243Z,2.80
2022-11-24T08:21:23.943Z,2.80
2022-11-24T08:23:56.088Z,2.80
2022-11-24T08:26:25.676Z,2.80
2022-11-24T08:28:56.725Z,2.80
2022-11-24T08:31:33.327Z,2.90
2022-11-24T08:34:03.639Z,2.80
2022-11-24T08:36:34.897Z,2.80
2022-11-24T08:39:03.638Z,2.80
2022-11-24T08:41:33.786Z,2.80
2022-11-24T08:44:02.139Z,2.80
2022-11-24T08:46:32.521Z,2.90
2022-11-24T08:49:01.924Z,2.90
2022-11-24T08:51:30.922Z,2.90
2022-11-24T08:54:01.237Z,3.00
2022-11-24T08:56:31.922Z,2.90
2022-11-24T08:59:01.565Z,2.90
2022-11-24T09:01:31.894Z,3.00
2022-11-24T09:04:00.468Z,2.90
2022-11-24T09:06:31.704Z,2.90
2022-11-24T09:09:00.838Z,2.90
2022-11-24T09:11:30.892Z,2.90
2022-11-24T09:13:59.377Z,2.90
2022-11-24T09:16:30.103Z,3.00
2022-11-24T09:19:01.926Z,3.00
2022-11-24T09:21:34.356Z,3.00
2022-11-24T09:24:03.095Z,3.10
2022-11-24T09:26:34.014Z,3.10
2022-11-24T09:29:04.923Z,3.10
2022-11-24T09:31:36.230Z,3.00
2022-11-24T09:34:07.959Z,3.10
2022-11-24T09:36:37.005Z,3.20
2022-11-24T09:39:05.907Z,3.20
2022-11-24T09:41:42.886Z,3.30
2022-11-24T09:44:34.332Z,3.30
2022-11-24T09:47:11.274Z,3.40
2022-11-24T09:49:51.258Z,3.40
2022-11-24T09:52:39.935Z,3.40
2022-11-24T09:55:23.771Z,3.50
2022-11-24T09:58:02.189Z,3.60
2022-11-24T10:00:31.443Z,3.60
2022-11-24T10:03:00.238Z,3.60
2022-11-24T10:05:35.048Z,3.60
2022-11-24T10:08:19.323Z,3.50
2022-11-24T10:10:57.609Z,3.50
2022-11-24T10:13:50.934Z,3.50
2022-11-24T10:16:30.189Z,3.60
2022-11-24T10:19:04.799Z,3.60
2022-11-24T10:21:48.103Z,3.50
2022-11-24T10:24:56.633Z,3.60
2022-11-24T10:27:31.560Z,3.60
2022-11-24T10:30:02.509Z,3.60
2022-11-24T10:32:36.698Z,3.60
2022-11-24T10:35:16.201Z,3.70
2022-11-24T10:37:54.815Z,3.70
2022-11-24T10:40:56.113Z,3.70
2022-11-24T10:43:22.882Z,3.80
2022-11-24T10:45:51.810Z,3.80
2022-11-24T10:48:23.717Z,3.80
2022-11-24T10:50:55.369Z,3.90
2022-11-24T10:53:31.050Z,3.90
2022-11-24T10:56:02.273Z,3.90
2022-11-24T10:58:37.251Z,4.00
2022-11-24T11:01:28.932Z,4.00
2022-11-24T11:03:59.665Z,4.00
2022-11-24T11:06:29.529Z,4.00
2022-11-24T11:09:19.408Z,4.00
2022-11-24T11:11:49.094Z,4.00
2022-11-24T11:14:31.905Z,4.10
2022-11-24T11:17:00.663Z,4.10
2022-11-24T11:19:54.334Z,4.10
2022-11-24T11:22:28.197Z,4.10
2022-11-24T11:25:19.890Z,4.10
2022-11-24T11:27:48.907Z,4.10
2022-11-24T11:36:13.001Z,4.00
2022-11-24T11:38:42.905Z,4.00
2022-11-24T11:41:20.606Z,4.00
2022-11-24T11:43:55.707Z,4.00
2022-11-24T11:46:29.688Z,4.00
2022-11-24T11:48:58.695Z,4.00
2022-11-24T11:54:44.063Z,4.10
2022-11-24T11:57:26.470Z,4.10
2022-11-24T12:00:05.728Z,4.20
2022-11-24T12:02:58.113Z,4.20
2022-11-24T12:05:35.925Z,4.20
2022-11-24T12:08:21.388Z,4.20
2022-11-24T12:10:57.621Z,4.20
2022-11-24T12:13:46.317Z,4.20
2022-11-24T12:16:30.929Z,4.20
2022-11-24T12:19:15.858Z,4.20
2022-11-24T12:21:55.522Z,4.20
2022-11-24T12:24:31.650Z,4.10
2022-11-24T12:27:06.080Z,4.30
2022-11-24T12:30:12.460Z,4.20
2022-11-24T12:33:08.151Z,4.20
2022-11-24T12:35:39.849Z,4.10
2022-11-24T12:38:23.675Z,4.10
2022-11-24T12:41:39.590Z,4.10
2022-11-24T12:44:00.709Z,4.10
2022-11-24T12:46:49.276Z,4.10
2022-11-24T12:49:27.600Z,4.10
2022-11-24T12:52:02.420Z,4.10
2022-11-24T12:54:39.187Z,4.10
2022-11-24T12:57:14.286Z,4.20
2022-11-24T12:59:49.084Z,4.10
2022-11-24T13:02:29.086Z,4.10
2022-11-24T13:05:05.986Z,4.00
2022-11-24T13:07:43.829Z,4.00
2022-11-24T13:13:25.054Z,4.00
2022-11-24T13:19:14.885Z,4.00
2022-11-24T13:22:09.861Z,4.00
2022-11-24T13:24:40.243Z,3.90
2022-11-24T13:27:43.198Z,3.90
2022-11-24T13:30:47.562Z,3.80
2022-11-24T13:33:32.761Z,3.80
2022-11-24T13:36:45.992Z,3.80
2022-11-24T13:39:22.685Z,3.80
2022-11-24T13:42:42.235Z,3.80
2022-11-24T13:45:01.927Z,3.80
2022-11-24T13:47:36.069Z,3.90
2022-11-24T13:50:11.135Z,3.80
2022-11-24T13:52:44.744Z,3.80
2022-11-24T13:55:25.946Z,3.80
2022-11-24T13:57:58.697Z,3.80
2022-11-24T14:00:29.978Z,3.80
2022-11-24T14:03:02.679Z,3.80
2022-11-24T14:05:39.035Z,3.80
2022-11-24T14:08:15.129Z,3.80
2022-11-24T14:10:45.341Z,3.70
2022-11-24T14:13:34.747Z,3.70
2022-11-24T14:16:06.626Z,3.70
2022-11-24T14:18:36.353Z,3.60
2022-11-24T14:21:23.384Z,3.60
2022-11-24T14:23:54.596Z,3.60
2022-11-24T14:26:27.810Z,3.60
2022-11-24T14:29:06.701Z,3.60
2022-11-24T14:31:35.719Z,3.60
2022-11-24T14:34:19.429Z,3.60
2022-11-24T14:36:48.601Z,3.60
2022-11-24T14:39:19.923Z,3.60
2022-11-24T14:41:56.923Z,3.60
2022-11-24T14:44:27.750Z,3.60
2022-11-24T14:47:04.274Z,3.50
2022-11-24T14:49:35.028Z,3.60
2022-11-24T14:52:09.967Z,3.60
2022-11-24T14:54:51.613Z,3.50
2022-11-24T14:57:32.853Z,3.50
2022-11-24T15:00:19.511Z,3.50
2022-11-24T15:02:51.957Z,3.50
2022-11-24T15:05:22.973Z,3.50
2022-11-24T15:08:01.093Z,3.50
2022-11-24T15:10:35.474Z,3.50
2022-11-24T15:13:15.875Z,3.50
2022-11-24T15:15:51.770Z,3.50
2022-11-24T15:18:28.175Z,3.40
2022-11-24T15:20:56.963Z,3.50
2022-11-24T15:23:27.577Z,3.50
2022-11-24T15:25:56.989Z,3.40
2022-11-24T15:28:27.171Z,3.40
2022-11-24T15:30:57.409Z,3.40
2022-11-24T15:33:26.553Z,3.40
2022-11-24T15:35:55.637Z,3.40
2022-11-24T15:38:25.248Z,3.40
2022-11-24T15:40:55.362Z,3.30
2022-11-24T15:43:32.711Z,3.30
2022-11-24T15:46:02.473Z,3.40
2022-11-24T15:48:31.937Z,3.40
2022-11-24T15:51:02.753Z,3.40
2022-11-24T15:53:34.980Z,3.40
2022-11-24T15:56:06.578Z,3.40
2022-11-24T15:58:36.659Z,3.30
2022-11-24T16:01:05.286Z,3.30
2022-11-24T16:03:49.694Z,3.30
2022-11-24T16:06:25.090Z,3.30
2022-11-24T16:08:54.077Z,3.30
2022-11-24T16:11:22.626Z,3.30
2022-11-24T16:13:54.184Z,3.30
2022-11-24T16:16:24.957Z,3.30
2022-11-24T16:18:54.036Z,3.30
2022-11-24T16:21:23.383Z,3.30
2022-11-24T16:23:52.211Z,3.30
2022-11-24T16:26:20.723Z,3.40
2022-11-24T16:28:49.412Z,3.30
2022-11-24T16:31:19.921Z,3.30
2022-11-24T16:33:48.816Z,3.30
2022-11-24T16:36:17.610Z,3.30
2022-11-24T16:38:46.479Z,3.30
2022-11-24T16:41:16.012Z,3.30
2022-11-24T16:43:45.213Z,3.30
2022-11-24T16:46:21.256Z,3.30
2022-11-24T16:48:51.838Z,3.30
2022-11-24T16:51:22.643Z,3.30
2022-11-24T16:53:58.700Z,3.30
2022-11-24T16:56:27.694Z,3.30
2022-11-24T16:58:56.713Z,3.30
2022-11-24T17:01:27.176Z,3.20
2022-11-24T17:03:56.196Z,3.20
2022-11-24T17:06:24.766Z,3.20
2022-11-24T17:08:54.179Z,3.30
2022-11-24T17:11:24.837Z,3.20
2022-11-24T17:13:53.563Z,3.30
2022-11-24T17:16:24.108Z,3.30
2022-11-24T17:18:54.930Z,3.30
2022-11-24T17:21:25.443Z,3.30
2022-11-24T17:23:56.119Z,3.30
2022-11-24T17:26:25.128Z,3.30
2022-11-24T17:28:54.242Z,3.20
2022-11-24T17:31:27.414Z,3.30
2022-11-24T17:33:59.871Z,3.30
2022-11-24T17:36:29.498Z,3.20
2022-11-24T17:39:00.449Z,3.20
2022-11-24T17:41:29.104Z,3.20
2022-11-24T17:43:58.329Z,3.20
2022-11-24T17:46:28.266Z,3.20
2022-11-24T17:48:59.402Z,3.20
2022-11-24T17:51:28.683Z,3.20
2022-11-24T17:53:58.512Z,3.20
2022-11-24T17:56:28.692Z,3.20
2022-11-24T17:58:59.183Z,3.20
2022-11-24T18:01:30.347Z,3.20
2022-11-24T18:04:01.056Z,3.20
2022-11-24T18:06:29.892Z,3.20
2022-11-24T18:08:59.508Z,3.20
2022-11-24T18:11:32.077Z,3.20
2022-11-24T18:14:03.212Z,3.20
2022-11-24T18:16:34.312Z,3.20
2022-11-24T18:19:10.956Z,3.20
2022-11-24T18:21:40.984Z,3.20
2022-11-24T18:24:11.000Z,3.30
2022-11-24T18:26:40.277Z,3.30
2022-11-24T18:29:09.287Z,3.30
2022-11-24T18:31:38.873Z,3.30
2022-11-24T18:34:09.105Z,3.40
2022-11-24T18:36:38.020Z,3.30
2022-11-24T18:39:08.119Z,3.40
2022-11-24T18:41:37.442Z,3.40
2022-11-24T18:44:08.520Z,3.40
2022-11-24T18:46:37.961Z,3.40
2022-11-24T18:49:08.525Z,3.30
2022-11-24T18:51:37.210Z,3.30
2022-11-24T18:54:06.512Z,3.30
2022-11-24T18:56:35.283Z,3.30
2022-11-24T18:59:04.253Z,3.30
2022-11-24T19:01:32.959Z,3.30
2022-11-24T19:04:03.490Z,3.30
2022-11-24T19:06:34.872Z,3.30
2022-11-24T19:09:06.856Z,3.30
2022-11-24T19:11:38.127Z,3.30
2022-11-24T19:14:09.544Z,3.30
2022-11-24T19:16:38.633Z,3.30
2022-11-24T19:19:07.721Z,3.30
2022-11-24T19:21:39.134Z,3.30
2022-11-24T19:24:10.196Z,3.30
2022-11-24T19:26:39.537Z,3.30
2022-11-24T19:29:09.230Z,3.20
2022-11-24T19:31:39.448Z,3.40
2022-11-24T19:34:08.919Z,3.30
2022-11-24T19:36:40.559Z,3.30
2022-11-24T19:39:09.316Z,3.30
2022-11-24T19:41:37.928Z,3.30
2022-11-24T19:44:08.297Z,3.30
2022-11-24T19:46:36.987Z,3.20
2022-11-24T19:49:05.705Z,3.20
2022-11-24T19:51:36.248Z,3.20
2022-11-24T19:54:08.180Z,3.20
2022-11-24T19:56:38.155Z,3.20
2022-11-24T19:59:07.865Z,3.20
2022-11-24T20:01:38.533Z,3.20
2022-11-24T20:04:09.365Z,3.20
2022-11-24T20:06:40.369Z,3.20
2022-11-24T20:09:12.319Z,3.20
2022-11-24T20:11:41.736Z,3.20
2022-11-24T20:14:13.297Z,3.20
2022-11-24T20:16:42.468Z,3.30
2022-11-24T20:19:13.188Z,3.40
2022-11-24T20:21:46.022Z,3.60
2022-11-24T20:24:18.352Z,3.80
2022-11-24T20:26:49.016Z,4.00
2022-11-24T20:29:18.201Z,4.10
2022-11-24T20:31:49.206Z,4.30
2022-11-24T20:34:18.959Z,4.60
2022-11-24T20:36:48.507Z,4.60
2022-11-24T20:39:20.566Z,4.80
2022-11-24T20:41:49.547Z,4.90
2022-11-24T20:44:21.298Z,5.00
2022-11-24T20:46:50.453Z,5.00
2022-11-24T20:49:21.978Z,5.10
2022-11-24T20:51:54.388Z,5.20
2022-11-24T20:54:24.704Z,5.20
2022-11-24T20:56:52.973Z,5.30
2022-11-24T20:59:23.397Z,5.30
2022-11-24T21:01:55.154Z,5.30
2022-11-24T21:04:26.662Z,5.30
2022-11-24T21:06:55.613Z,5.20
2022-11-24T21:09:27.299Z,5.20
2022-11-24T21:11:55.842Z,5.20
2022-11-24T21:14:25.442Z,5.10
2022-11-24T21:16:53.775Z,5.10
2022-11-24T21:19:22.311Z,5.00
2022-11-24T21:21:50.638Z,4.90
2022-11-24T21:24:21.696Z,4.90
2022-11-24T21:26:52.806Z,4.80
2022-11-24T21:29:23.819Z,4.90
2022-11-24T21:31:52.856Z,4.90
2022-11-24T21:34:21.752Z,4.90
2022-11-24T21:36:50.118Z,5.00
2022-11-24T21:39:18.860Z,5.00
2022-11-24T21:41:47.679Z,5.10
2022-11-24T21:44:17.740Z,5.00
2022-11-24T21:46:52.699Z,5.10
2022-11-24T21:49:24.303Z,5.10
2022-11-24T21:51:55.706Z,5.20
2022-11-24T21:54:25.040Z,5.20
2022-11-24T21:56:55.467Z,5.10
2022-11-24T21:59:25.499Z,5.10
2022-11-24T22:01:54.100Z,5.20
2022-11-24T22:04:26.575Z,5.20
2022-11-24T22:06:54.949Z,5.20
2022-11-24T22:09:23.838Z,5.20
2022-11-24T22:11:52.672Z,5.10
2022-11-24T22:14:21.399Z,5.10
2022-11-24T22:16:51.130Z,5.20
2022-11-24T22:19:20.019Z,5.10
2022-11-24T22:21:48.406Z,5.20
2022-11-24T22:24:17.116Z,5.10
2022-11-24T22:26:45.441Z,5.10
2022-11-24T22:29:13.983Z,5.00
2022-11-24T22:31:42.521Z,5.00
2022-11-24T22:34:12.482Z,5.00
2022-11-24T22:36:40.688Z,5.00
2022-11-24T22:39:13.034Z,4.90
2022-11-24T22:41:41.301Z,4.80
2022-11-24T22:44:10.011Z,4.80
2022-11-24T22:46:38.549Z,4.60
2022-11-24T22:49:07.116Z,4.60
2022-11-24T22:51:40.026Z,4.50
2022-11-24T22:54:08.564Z,4.50
2022-11-24T22:56:36.826Z,4.40
2022-11-24T22:59:05.594Z,4.40
2022-11-24T23:01:34.728Z,4.30
2022-11-24T23:04:03.996Z,4.20
2022-11-24T23:06:34.172Z,4.20
2022-11-24T23:09:05.693Z,4.20
2022-11-24T23:11:38.379Z,4.10
2022-11-24T23:14:09.502Z,4.10
2022-11-24T23:16:38.321Z,4.00
2022-11-24T23:19:07.642Z,4.00
2022-11-24T23:21:39.076Z,3.90
2022-11-24T23:24:11.491Z,3.90
2022-11-24T23:26:41.259Z,3.90
2022-11-24T23:29:12.262Z,3.90
2022-11-24T23:31:41.226Z,3.90
2022-11-24T23:34:12.890Z,3.90
2022-11-24T23:36:41.575Z,3.90
2022-11-24T23:39:14.283Z,3.90
2022-11-24T23:41:42.979Z,3.90
2022-11-24T23:44:11.942Z,3.90
2022-11-24T23:46:40.320Z,3.90
2022-11-24T23:49:09.003Z,3.80
2022-11-24T23:51:41.567Z,3.90
2022-11-24T23:54:29.533Z,3.80
2022-11-24T23:56:57.776Z,3.90
2022-11-24T23:59:26.957Z,3.80
